Time;durP1;ratioP1;P1;durP2;ratioP2;P2;SDS_P1;SDS_P2;PMS_P1;PMS_P2;Temp;Humidity;BMP_temperature;BMP_pressure;BME280_temperature;BME280_humidity;BME280_pressure;Samples;Min_cycle;Max_cycle;Signal;HPM_P1;HPM_P2
2022/07/28 00:00:28;;;;;;;3.73;3.43;;;;;;;;;;5025622;28;20221;-53
2022/07/28 00:02:55;;;;;;;3.17;2.97;;;;;;;;;;5007523;28;20204;-53
2022/07/28 00:05:21;;;;;;;3.10;2.90;;;;;;;;;;5022036;28;20186;-52
2022/07/28 00:07:47;;;;;;;3.10;2.83;;;;;;;;;;5012161;28;20726;-52
2022/07/28 00:10:13;;;;;;;4.43;3.93;;;;;;;;;;5027555;28;20158;-53
2022/07/28 00:12:39;;;;;;;3.17;2.60;;;;;;;;;;5018677;28;20175;-52
2022/07/28 00:15:06;;;;;;;3.30;3.10;;;;;;;;;;5020957;28;20240;-53
2022/07/28 00:17:32;;;;;;;2.90;2.70;;;;;;;;;;5025230;28;20189;-53
2022/07/28 00:19:58;;;;;;;3.00;2.80;;;;;;;;;;5038548;28;20217;-53
2022/07/28 00:22:24;;;;;;;3.67;3.37;;;;;;;;;;5024503;28;20680;-52
2022/07/28 00:24:50;;;;;;;3.20;2.90;;;;;;;;;;5025876;28;20209;-53
2022/07/28 00:27:17;;;;;;;3.50;3.20;;;;;;;;;;5024142;28;20675;-54
2022/07/28 00:29:43;;;;;;;2.97;2.77;;;;;;;;;;5026788;28;20191;-52
2022/07/28 00:32:09;;;;;;;3.20;3.00;;;;;;;;;;5024774;28;20536;-53
2022/07/28 00:34:36;;;;;;;2.93;2.73;;;;;;;;;;5025096;28;20620;-52
2022/07/28 00:37:02;;;;;;;3.40;3.10;;;;;;;;;;5008031;28;21079;-53
2022/07/28 00:39:28;;;;;;;2.97;2.77;;;;;;;;;;5026880;28;20158;-52
2022/07/28 00:41:54;;;;;;;3.90;3.60;;;;;;;;;;5024930;28;20269;-53
2022/07/28 00:44:20;;;;;;;2.93;2.73;;;;;;;;;;5030142;28;20667;-53
2022/07/28 00:46:46;;;;;;;2.85;2.65;;;;;;;;;;5042694;28;20469;-52
2022/07/28 00:49:16;;;;;;;3.53;2.80;;;;;;;;;;5026865;28;20162;-53
2022/07/28 00:51:42;;;;;;;2.60;2.40;;;;;;;;;;5025510;28;20649;-52
2022/07/28 00:54:08;;;;;;;2.73;2.57;;;;;;;;;;5025207;28;20205;-53
2022/07/28 00:56:34;;;;;;;3.10;2.90;;;;;;;;;;5026589;28;20170;-53
2022/07/28 00:59:01;;;;;;;3.00;2.80;;;;;;;;;;5025349;28;20188;-53
2022/07/28 01:01:27;;;;;;;3.37;3.07;;;;;;;;;;5023333;28;20182;-53
2022/07/28 01:04:01;;;;;;;3.13;2.80;;;;;;;;;;5021796;28;20543;-52
2022/07/28 01:06:36;;;;;;;3.50;3.20;;;;;;;;;;5026152;28;20287;-54
2022/07/28 01:09:20;;;;;;;3.23;3.00;;;;;;;;;;5023978;28;20232;-53
2022/07/28 01:12:11;;;;;;;3.03;2.83;;;;;;;;;;5006782;28;20180;-53
2022/07/28 01:14:44;;;;;;;3.17;2.97;;;;;;;;;;5027509;28;20179;-54
2022/07/28 01:17:25;;;;;;;3.37;3.07;;;;;;;;;;5009027;28;20172;-54
2022/07/28 01:20:09;;;;;;;3.07;2.90;;;;;;;;;;5025386;28;20210;-53
2022/07/28 01:22:39;;;;;;;2.90;2.70;;;;;;;;;;5022725;28;20172;-53
2022/07/28 01:25:23;;;;;;;3.30;3.10;;;;;;;;;;5024999;28;20425;-54
2022/07/28 01:28:07;;;;;;;4.43;3.97;;;;;;;;;;5024530;28;20292;-53
2022/07/28 01:30:36;;;;;;;3.10;2.90;;;;;;;;;;5026799;28;20563;-54
2022/07/28 01:33:04;;;;;;;3.27;2.97;;;;;;;;;;5023729;28;20172;-53
2022/07/28 01:35:32;;;;;;;2.70;2.60;;;;;;;;;;5026112;28;20618;-53
2022/07/28 01:38:00;;;;;;;3.00;2.80;;;;;;;;;;5022616;28;20241;-54
2022/07/28 01:40:29;;;;;;;3.20;3.00;;;;;;;;;;5026011;28;20172;-53
2022/07/28 01:42:57;;;;;;;3.73;3.13;;;;;;;;;;5005917;28;20190;-53
2022/07/28 01:45:23;;;;;;;2.93;2.73;;;;;;;;;;5026393;28;20198;-53
2022/07/28 01:47:56;;;;;;;2.90;2.80;;;;;;;;;;5022747;28;20209;-53
2022/07/28 01:50:24;;;;;;;3.43;3.20;;;;;;;;;;5031177;28;20184;-53
2022/07/28 01:52:51;;;;;;;2.80;2.63;;;;;;;;;;5037722;28;20232;-53
2022/07/28 01:55:19;;;;;;;3.10;2.90;;;;;;;;;;5032386;28;20178;-52
2022/07/28 01:57:46;;;;;;;2.73;2.53;;;;;;;;;;5028813;28;20181;-53
2022/07/28 02:00:12;;;;;;;3.67;3.37;;;;;;;;;;5033583;28;20731;-53
2022/07/28 02:02:40;;;;;;;3.17;3.07;;;;;;;;;;5012359;28;20667;-52
2022/07/28 02:05:07;;;;;;;3.33;3.07;;;;;;;;;;5031260;28;20185;-53
2022/07/28 02:07:34;;;;;;;3.30;3.10;;;;;;;;;;5012383;28;20221;-53
2022/07/28 02:10:00;;;;;;;3.17;2.97;;;;;;;;;;5032613;28;20178;-53
2022/07/28 02:12:27;;;;;;;3.37;3.17;;;;;;;;;;5029840;28;20220;-53
2022/07/28 02:14:54;;;;;;;2.83;2.73;;;;;;;;;;5031810;28;20182;-53
2022/07/28 02:17:24;;;;;;;3.43;3.23;;;;;;;;;;5030514;28;20189;-53
2022/07/28 02:19:52;;;;;;;3.47;3.17;;;;;;;;;;5014123;28;20263;-53
2022/07/28 02:22:19;;;;;;;3.10;2.90;;;;;;;;;;5018948;28;20201;-54
2022/07/28 02:24:46;;;;;;;2.60;2.50;;;;;;;;;;5031118;28;20186;-53
2022/07/28 02:27:31;;;;;;;3.23;3.03;;;;;;;;;;5030892;28;20288;-52
2022/07/28 02:30:01;;;;;;;2.80;2.53;;;;;;;;;;5032937;28;20685;-52
2022/07/28 02:32:37;;;;;;;3.40;3.20;;;;;;;;;;5031927;28;20182;-53
2022/07/28 02:35:07;;;;;;;3.17;2.97;;;;;;;;;;5031287;28;20193;-53
2022/07/28 02:37:35;;;;;;;3.17;2.97;;;;;;;;;;5032427;28;20173;-53
2022/07/28 02:40:02;;;;;;;3.47;3.20;;;;;;;;;;5032477;28;20176;-52
2022/07/28 02:42:31;;;;;;;3.43;3.20;;;;;;;;;;5030705;28;20525;-53
2022/07/28 02:45:02;;;;;;;3.23;2.97;;;;;;;;;;5032505;28;20189;-53
2022/07/28 02:47:31;;;;;;;3.37;3.10;;;;;;;;;;5031911;28;20197;-53
2022/07/28 02:49:58;;;;;;;3.27;3.07;;;;;;;;;;5032993;28;20174;-53
2022/07/28 02:52:25;;;;;;;3.33;2.93;;;;;;;;;;5031192;28;20177;-52
2022/07/28 02:54:51;;;;;;;3.60;3.30;;;;;;;;;;5032507;28;20628;-52
2022/07/28 02:57:18;;;;;;;2.83;2.70;;;;;;;;;;5028187;28;20273;-52
2022/07/28 02:59:44;;;;;;;3.60;3.30;;;;;;;;;;5033157;28;20463;-52
2022/07/28 03:02:11;;;;;;;3.37;3.10;;;;;;;;;;5008974;28;20184;-53
2022/07/28 03:07:31;;;;;;;3.60;3.40;;;;;;;;;;5029355;28;20587;-53
2022/07/28 03:09:57;;;;;;;2.87;2.67;;;;;;;;;;5029233;28;20174;-53
2022/07/28 03:12:24;;;;;;;3.37;3.07;;;;;;;;;;5024712;28;20177;-52
2022/07/28 03:14:50;;;;;;;3.87;3.57;;;;;;;;;;5029906;28;20176;-53
2022/07/28 03:17:17;;;;;;;4.33;4.03;;;;;;;;;;5009421;28;20177;-52
2022/07/28 03:19:44;;;;;;;3.37;2.87;;;;;;;;;;5028059;28;20276;-53
2022/07/28 03:22:10;;;;;;;2.80;2.60;;;;;;;;;;5030829;28;20182;-52
2022/07/28 03:24:37;;;;;;;3.30;3.07;;;;;;;;;;5027260;28;20312;-52
2022/07/28 03:27:10;;;;;;;3.00;2.80;;;;;;;;;;5027144;28;20198;-53
2022/07/28 03:29:37;;;;;;;3.17;2.87;;;;;;;;;;5029137;28;20150;-52
2022/07/28 03:32:03;;;;;;;7.23;6.80;;;;;;;;;;5023571;28;20182;-53
2022/07/28 03:34:29;;;;;;;3.00;2.80;;;;;;;;;;5029201;28;20640;-52
2022/07/28 03:37:00;;;;;;;2.93;2.73;;;;;;;;;;5028441;28;20588;-52
2022/07/28 03:39:27;;;;;;;3.20;3.00;;;;;;;;;;5006776;28;20648;-52
2022/07/28 03:41:54;;;;;;;3.10;2.90;;;;;;;;;;5020702;28;20579;-52
2022/07/28 03:44:21;;;;;;;4.57;4.27;;;;;;;;;;5030098;28;20184;-52
2022/07/28 03:46:47;;;;;;;3.30;3.00;;;;;;;;;;5028097;28;20661;-52
2022/07/28 03:49:13;;;;;;;3.47;3.17;;;;;;;;;;5025057;28;20565;-52
2022/07/28 03:51:40;;;;;;;3.70;3.40;;;;;;;;;;5022889;28;20179;-52
2022/07/28 03:54:06;;;;;;;3.00;2.90;;;;;;;;;;5028496;28;20620;-53
2022/07/28 03:56:32;;;;;;;3.30;3.00;;;;;;;;;;5026184;28;20204;-52
2022/07/28 03:58:58;;;;;;;3.20;3.00;;;;;;;;;;5026758;28;20632;-52
2022/07/28 04:01:24;;;;;;;5.37;5.03;;;;;;;;;;5028356;28;20647;-52
2022/07/28 04:03:50;;;;;;;4.47;2.93;;;;;;;;;;5026221;28;20625;-52
2022/07/28 04:06:16;;;;;;;2.80;2.60;;;;;;;;;;5028805;28;20688;-51
2022/07/28 04:08:42;;;;;;;3.50;3.20;;;;;;;;;;5008531;28;20174;-52
2022/07/28 04:11:08;;;;;;;3.27;2.90;;;;;;;;;;5028614;28;20524;-52
2022/07/28 04:13:35;;;;;;;3.03;2.77;;;;;;;;;;5023852;28;20177;-51
2022/07/28 04:16:02;;;;;;;3.10;2.80;;;;;;;;;;5024796;28;20178;-51
2022/07/28 04:18:28;;;;;;;3.37;2.87;;;;;;;;;;5025234;28;20612;-51
2022/07/28 04:20:57;;;;;;;3.58;3.05;;;;;;;;;;5009351;28;20829;-52
2022/07/28 04:23:23;;;;;;;4.63;4.33;;;;;;;;;;5018563;28;20174;-52
2022/07/28 04:25:49;;;;;;;3.80;3.03;;;;;;;;;;5009551;28;20622;-51
2022/07/28 04:28:15;;;;;;;3.30;3.10;;;;;;;;;;5028467;28;20698;-52
2022/07/28 04:30:41;;;;;;;3.87;3.57;;;;;;;;;;5028253;28;20174;-52
2022/07/28 04:33:07;;;;;;;5.67;5.33;;;;;;;;;;5026512;28;20200;-52
2022/07/28 04:35:34;;;;;;;2.87;2.60;;;;;;;;;;5028842;28;20215;-51
2022/07/28 04:38:01;;;;;;;2.90;2.70;;;;;;;;;;5026502;28;20182;-52
2022/07/28 04:40:27;;;;;;;4.00;3.13;;;;;;;;;;5029197;28;20655;-52
2022/07/28 04:42:54;;;;;;;4.17;2.57;;;;;;;;;;4998299;28;20652;-51
2022/07/28 04:45:20;;;;;;;3.10;2.90;;;;;;;;;;5026243;28;20628;-50
2022/07/28 04:47:46;;;;;;;2.90;2.60;;;;;;;;;;5016200;28;20687;-52
2022/07/28 04:50:17;;;;;;;2.90;2.70;;;;;;;;;;5027888;28;20174;-51
2022/07/28 04:52:47;;;;;;;3.73;3.43;;;;;;;;;;5017335;28;20186;-52
2022/07/28 04:55:13;;;;;;;3.50;3.20;;;;;;;;;;5008062;28;20182;-51
2022/07/28 04:57:39;;;;;;;3.10;2.87;;;;;;;;;;5016394;28;20629;-52
2022/07/28 05:00:11;;;;;;;5.30;4.93;;;;;;;;;;4990661;28;20539;-52
2022/07/28 05:02:37;;;;;;;3.17;2.90;;;;;;;;;;5009393;28;20194;-52
2022/07/28 05:05:04;;;;;;;2.63;2.43;;;;;;;;;;5013600;28;20188;-52
2022/07/28 05:07:36;;;;;;;3.97;2.93;;;;;;;;;;5007998;28;20281;-52
2022/07/28 05:10:03;;;;;;;3.90;2.37;;;;;;;;;;5007483;28;20154;-52
2022/07/28 05:12:32;;;;;;;2.63;2.43;;;;;;;;;;5008185;28;20181;-52
2022/07/28 05:14:58;;;;;;;3.30;2.83;;;;;;;;;;5003651;28;20530;-52
2022/07/28 05:17:24;;;;;;;3.10;2.83;;;;;;;;;;4988538;28;20178;-52
2022/07/28 05:19:51;;;;;;;3.00;2.80;;;;;;;;;;4988562;28;20257;-52
2022/07/28 05:22:17;;;;;;;2.67;2.43;;;;;;;;;;5003221;28;20183;-52
2022/07/28 05:24:43;;;;;;;3.10;2.60;;;;;;;;;;4990332;28;20172;-53
2022/07/28 05:27:12;;;;;;;3.57;2.80;;;;;;;;;;5006481;28;20216;-53
2022/07/28 05:29:40;;;;;;;2.70;2.50;;;;;;;;;;4990182;28;20170;-53
2022/07/28 05:32:07;;;;;;;3.57;3.33;;;;;;;;;;5001533;28;20205;-54
2022/07/28 05:34:33;;;;;;;4.17;3.60;;;;;;;;;;4989234;28;20241;-54
2022/07/28 05:37:02;;;;;;;2.90;2.63;;;;;;;;;;5005097;28;20657;-54
2022/07/28 05:39:32;;;;;;;2.30;2.20;;;;;;;;;;5005858;28;20186;-53
2022/07/28 05:42:04;;;;;;;2.80;2.53;;;;;;;;;;5000989;28;20265;-53
2022/07/28 05:44:30;;;;;;;3.00;2.10;;;;;;;;;;5001958;28;20183;-53
2022/07/28 05:46:59;;;;;;;2.80;2.40;;;;;;;;;;5001595;28;20209;-54
2022/07/28 05:49:25;;;;;;;5.83;3.90;;;;;;;;;;5007982;28;20205;-54
2022/07/28 05:51:51;;;;;;;3.10;2.73;;;;;;;;;;5002158;28;20213;-54
2022/07/28 05:54:17;;;;;;;3.00;2.80;;;;;;;;;;5003252;28;20197;-55
2022/07/28 05:56:44;;;;;;;3.80;3.30;;;;;;;;;;5006078;28;20174;-54
2022/07/28 05:59:10;;;;;;;3.10;2.63;;;;;;;;;;4984012;28;20708;-54
2022/07/28 06:01:37;;;;;;;8.30;3.93;;;;;;;;;;5002937;28;20257;-53
2022/07/28 06:04:03;;;;;;;4.93;3.77;;;;;;;;;;5000574;28;20251;-54
2022/07/28 06:06:41;;;;;;;7.30;3.93;;;;;;;;;;5006822;28;21033;-55
2022/07/28 06:09:07;;;;;;;6.50;3.07;;;;;;;;;;5006828;28;21011;-54
2022/07/28 06:11:36;;;;;;;3.00;2.80;;;;;;;;;;5014751;28;20174;-54
2022/07/28 06:14:02;;;;;;;3.73;2.90;;;;;;;;;;5025173;28;20689;-54
2022/07/28 06:16:28;;;;;;;2.87;2.67;;;;;;;;;;5025922;28;20181;-54
2022/07/28 06:18:54;;;;;;;3.90;3.10;;;;;;;;;;5007510;28;20191;-54
2022/07/28 06:21:23;;;;;;;3.40;3.10;;;;;;;;;;5007730;28;20251;-53
2022/07/28 06:23:50;;;;;;;2.93;2.73;;;;;;;;;;5005346;28;20269;-54
2022/07/28 06:26:16;;;;;;;2.90;2.70;;;;;;;;;;5006669;28;20162;-53
2022/07/28 06:28:43;;;;;;;4.47;3.07;;;;;;;;;;5021005;28;20586;-53
2022/07/28 06:31:09;;;;;;;4.60;2.90;;;;;;;;;;5027378;28;20170;-54
2022/07/28 06:33:35;;;;;;;2.77;2.50;;;;;;;;;;5009941;28;20262;-54
2022/07/28 06:36:01;;;;;;;2.80;2.40;;;;;;;;;;5008784;28;20170;-53
2022/07/28 06:38:27;;;;;;;3.27;2.70;;;;;;;;;;5023048;28;20645;-53
2022/07/28 06:40:54;;;;;;;2.83;2.63;;;;;;;;;;5021518;28;20186;-54
2022/07/28 06:43:20;;;;;;;4.73;4.30;;;;;;;;;;5026858;28;20186;-53
2022/07/28 06:45:46;;;;;;;3.40;3.10;;;;;;;;;;5029943;28;20297;-53
2022/07/28 06:48:12;;;;;;;6.40;2.97;;;;;;;;;;5025227;28;20189;-53
2022/07/28 06:50:38;;;;;;;2.67;2.47;;;;;;;;;;5027571;28;20694;-54
2022/07/28 06:53:05;;;;;;;3.90;2.63;;;;;;;;;;5024743;28;20453;-53
2022/07/28 06:55:31;;;;;;;3.33;2.90;;;;;;;;;;5030279;28;20170;-53
2022/07/28 06:57:58;;;;;;;3.07;2.77;;;;;;;;;;5016673;28;20193;-53
2022/07/28 07:00:27;;;;;;;3.63;3.33;;;;;;;;;;5029850;28;20192;-54
2022/07/28 07:02:53;;;;;;;4.00;2.93;;;;;;;;;;5026339;28;20236;-54
2022/07/28 07:05:19;;;;;;;2.80;2.37;;;;;;;;;;5028132;28;20256;-54
2022/07/28 07:07:45;;;;;;;3.40;2.57;;;;;;;;;;5018835;28;20272;-54
2022/07/28 07:10:14;;;;;;;3.97;3.57;;;;;;;;;;5027765;28;20265;-54
2022/07/28 07:12:40;;;;;;;4.53;2.97;;;;;;;;;;5018442;28;20688;-54
2022/07/28 07:15:07;;;;;;;4.23;2.67;;;;;;;;;;5011001;28;20629;-54
2022/07/28 07:17:36;;;;;;;2.90;2.60;;;;;;;;;;4994662;28;20197;-54
2022/07/28 07:20:02;;;;;;;3.20;2.80;;;;;;;;;;5026564;28;20238;-54
2022/07/28 07:22:28;;;;;;;5.63;3.50;;;;;;;;;;5024450;28;20599;-54
2022/07/28 07:24:54;;;;;;;3.63;2.87;;;;;;;;;;5008044;28;20913;-53
2022/07/28 07:27:20;;;;;;;3.97;2.90;;;;;;;;;;5026303;28;20739;-54
2022/07/28 07:29:46;;;;;;;3.27;2.77;;;;;;;;;;5030038;28;20502;-54
2022/07/28 07:32:12;;;;;;;6.10;2.80;;;;;;;;;;5011157;28;20526;-54
2022/07/28 07:34:38;;;;;;;2.80;2.57;;;;;;;;;;5028641;28;20265;-54
2022/07/28 07:37:05;;;;;;;3.07;2.80;;;;;;;;;;5025999;28;20174;-54
2022/07/28 07:39:32;;;;;;;3.83;2.73;;;;;;;;;;5025239;28;20170;-53
2022/07/28 07:41:58;;;;;;;3.00;2.80;;;;;;;;;;5006779;28;20719;-53
2022/07/28 07:44:24;;;;;;;4.77;2.40;;;;;;;;;;5029181;28;20170;-53
2022/07/28 07:46:50;;;;;;;3.77;2.63;;;;;;;;;;5023997;28;20225;-53
2022/07/28 07:49:17;;;;;;;4.37;2.60;;;;;;;;;;5007385;28;20168;-53
2022/07/28 07:51:43;;;;;;;2.50;2.20;;;;;;;;;;5010474;28;20166;-53
2022/07/28 07:54:09;;;;;;;3.97;3.10;;;;;;;;;;5026888;28;20166;-53
2022/07/28 07:56:35;;;;;;;4.13;2.77;;;;;;;;;;5025847;28;20784;-53
2022/07/28 07:59:02;;;;;;;4.70;3.10;;;;;;;;;;4990354;28;20186;-53
2022/07/28 08:01:28;;;;;;;4.87;3.13;;;;;;;;;;4992758;28;20189;-53
2022/07/28 08:03:54;;;;;;;3.63;3.07;;;;;;;;;;5029579;28;20177;-54
2022/07/28 08:06:20;;;;;;;3.10;2.80;;;;;;;;;;5029260;28;20170;-53
2022/07/28 08:08:46;;;;;;;4.87;2.73;;;;;;;;;;5028733;28;20254;-53
2022/07/28 08:11:12;;;;;;;3.70;2.53;;;;;;;;;;5011833;28;20245;-53
2022/07/28 08:13:38;;;;;;;2.77;2.33;;;;;;;;;;5027379;28;20188;-52
2022/07/28 08:16:05;;;;;;;2.57;2.40;;;;;;;;;;5029919;28;20154;-53
2022/07/28 08:18:31;;;;;;;3.77;2.90;;;;;;;;;;5028663;28;20173;-53
2022/07/28 08:20:57;;;;;;;3.50;2.40;;;;;;;;;;5029766;28;20533;-53
2022/07/28 08:23:23;;;;;;;2.57;2.37;;;;;;;;;;5027354;28;20509;-53
2022/07/28 08:25:49;;;;;;;3.80;3.40;;;;;;;;;;5028853;28;20636;-53
2022/07/28 08:28:15;;;;;;;3.43;2.63;;;;;;;;;;5028063;28;20312;-54
2022/07/28 08:30:42;;;;;;;4.47;2.97;;;;;;;;;;5029469;28;20158;-53
2022/07/28 08:33:08;;;;;;;4.60;3.83;;;;;;;;;;5014102;28;20232;-53
2022/07/28 08:35:34;;;;;;;3.60;2.40;;;;;;;;;;5009413;28;20170;-53
2022/07/28 08:38:00;;;;;;;2.73;2.50;;;;;;;;;;5007840;28;20209;-54
2022/07/28 08:40:31;;;;;;;3.63;2.63;;;;;;;;;;5028781;28;20629;-53
2022/07/28 08:43:23;;;;;;;3.43;2.90;;;;;;;;;;5014610;28;20189;-54
2022/07/28 08:45:51;;;;;;;3.90;2.63;;;;;;;;;;5006969;28;20195;-53
2022/07/28 08:48:20;;;;;;;5.47;2.90;;;;;;;;;;5008501;28;20428;-54
2022/07/28 08:50:47;;;;;;;5.90;2.63;;;;;;;;;;5009138;28;20169;-54
2022/07/28 08:53:14;;;;;;;3.00;2.70;;;;;;;;;;5007628;28;20613;-54
2022/07/28 08:55:40;;;;;;;3.50;2.73;;;;;;;;;;5008375;28;20221;-54
2022/07/28 08:58:06;;;;;;;3.37;3.07;;;;;;;;;;5007506;28;20197;-55
2022/07/28 09:00:33;;;;;;;2.67;2.47;;;;;;;;;;4990747;28;20518;-54
2022/07/28 09:02:59;;;;;;;2.63;2.20;;;;;;;;;;5003439;28;20178;-54
2022/07/28 09:05:26;;;;;;;3.40;3.10;;;;;;;;;;5010245;28;20209;-54
2022/07/28 09:07:53;;;;;;;3.57;2.60;;;;;;;;;;5010437;28;20229;-54
2022/07/28 09:10:20;;;;;;;3.47;2.67;;;;;;;;;;5027201;28;20224;-54
2022/07/28 09:12:46;;;;;;;3.83;2.73;;;;;;;;;;5016304;28;20186;-54
2022/07/28 09:15:12;;;;;;;3.07;2.60;;;;;;;;;;5008416;28;20171;-54
2022/07/28 09:17:39;;;;;;;2.57;2.37;;;;;;;;;;5007310;28;20197;-54
2022/07/28 09:20:06;;;;;;;2.50;2.30;;;;;;;;;;4990332;28;20704;-51
2022/07/28 09:22:33;;;;;;;3.83;2.67;;;;;;;;;;5017517;28;20217;-53
2022/07/28 09:25:01;;;;;;;4.23;2.60;;;;;;;;;;5026695;28;20162;-52
2022/07/28 09:27:27;;;;;;;3.87;2.67;;;;;;;;;;5021462;28;20237;-53
2022/07/28 09:29:59;;;;;;;3.40;3.10;;;;;;;;;;5027677;28;20158;-53
2022/07/28 09:32:26;;;;;;;3.10;2.80;;;;;;;;;;5019219;28;20180;-53
2022/07/28 09:34:52;;;;;;;2.87;2.57;;;;;;;;;;5007586;28;20664;-54
2022/07/28 09:37:22;;;;;;;3.03;2.33;;;;;;;;;;5008253;28;20570;-53
2022/07/28 09:39:51;;;;;;;3.10;2.57;;;;;;;;;;5007157;28;20699;-53
2022/07/28 09:42:18;;;;;;;3.40;2.67;;;;;;;;;;4997943;28;20619;-53
2022/07/28 09:44:44;;;;;;;4.47;2.53;;;;;;;;;;5009625;28;20245;-54
2022/07/28 09:47:23;;;;;;;2.83;2.40;;;;;;;;;;5009576;28;20260;-53
2022/07/28 09:49:49;;;;;;;4.33;3.27;;;;;;;;;;5026805;28;20166;-54
2022/07/28 09:52:28;;;;;;;3.00;2.33;;;;;;;;;;5020138;28;20269;-54
2022/07/28 09:55:00;;;;;;;5.27;3.17;;;;;;;;;;5026193;28;20158;-54
2022/07/28 09:57:27;;;;;;;6.47;2.50;;;;;;;;;;5019244;28;20215;-54
2022/07/28 09:59:53;;;;;;;3.37;2.60;;;;;;;;;;4990131;28;20176;-54
2022/07/28 10:02:23;;;;;;;3.37;2.40;;;;;;;;;;5007946;28;20172;-54
2022/07/28 10:04:51;;;;;;;2.60;2.40;;;;;;;;;;5007333;28;20344;-53
2022/07/28 10:07:17;;;;;;;4.33;2.40;;;;;;;;;;5018190;28;20768;-54
2022/07/28 10:09:44;;;;;;;3.30;3.03;;;;;;;;;;4987228;28;20182;-53
2022/07/28 10:12:20;;;;;;;3.70;2.80;;;;;;;;;;4989698;28;20178;-54
2022/07/28 10:14:48;;;;;;;3.70;2.57;;;;;;;;;;5011574;28;20170;-54
2022/07/28 10:17:23;;;;;;;3.40;2.70;;;;;;;;;;5005069;28;20278;-53
2022/07/28 10:19:50;;;;;;;3.10;2.73;;;;;;;;;;4992046;28;20249;-54
2022/07/28 10:22:18;;;;;;;2.70;2.50;;;;;;;;;;4992045;28;20206;-54
2022/07/28 10:24:46;;;;;;;3.30;3.00;;;;;;;;;;5012550;28;20648;-53
2022/07/28 10:27:12;;;;;;;2.73;2.53;;;;;;;;;;5005675;28;20210;-53
2022/07/28 10:29:40;;;;;;;4.30;2.80;;;;;;;;;;5006961;28;20187;-53
2022/07/28 10:32:06;;;;;;;2.83;2.63;;;;;;;;;;5006311;28;20179;-53
2022/07/28 10:34:38;;;;;;;3.30;2.30;;;;;;;;;;5006507;28;20624;-54
2022/07/28 10:37:06;;;;;;;4.67;2.80;;;;;;;;;;4988285;28;20178;-53
2022/07/28 10:39:39;;;;;;;3.37;3.07;;;;;;;;;;5004957;28;20243;-53
2022/07/28 10:42:08;;;;;;;2.77;2.53;;;;;;;;;;5007598;28;20291;-53
2022/07/28 10:44:34;;;;;;;8.97;3.70;;;;;;;;;;5004854;28;20229;-53
2022/07/28 10:47:01;;;;;;;4.03;2.70;;;;;;;;;;4975187;28;20203;-53
2022/07/28 10:49:27;;;;;;;3.60;3.30;;;;;;;;;;5010398;28;20533;-54
2022/07/28 10:51:55;;;;;;;2.50;2.20;;;;;;;;;;4994720;28;20272;-52
2022/07/28 10:54:29;;;;;;;3.40;2.30;;;;;;;;;;5007575;28;20539;-52
2022/07/28 10:56:57;;;;;;;2.80;2.60;;;;;;;;;;5023805;28;20182;-53
2022/07/28 10:59:26;;;;;;;2.60;2.37;;;;;;;;;;5009749;28;20637;-52
2022/07/28 11:01:52;;;;;;;2.87;2.47;;;;;;;;;;4987175;28;20183;-53
2022/07/28 11:04:37;;;;;;;4.73;2.60;;;;;;;;;;5011001;28;20186;-54
2022/07/28 11:07:13;;;;;;;3.80;2.57;;;;;;;;;;4990240;28;20564;-53
2022/07/28 11:09:40;;;;;;;2.13;2.03;;;;;;;;;;5025782;28;20185;-53
2022/07/28 11:12:06;;;;;;;3.47;2.77;;;;;;;;;;5022357;28;20252;-53
2022/07/28 11:14:36;;;;;;;2.67;2.47;;;;;;;;;;5027235;28;20246;-53
2022/07/28 11:17:05;;;;;;;2.80;2.60;;;;;;;;;;5021891;28;20180;-53
2022/07/28 11:19:43;;;;;;;4.13;3.23;;;;;;;;;;5026994;28;20274;-53
2022/07/28 11:22:21;;;;;;;2.70;2.50;;;;;;;;;;5009059;28;20180;-54
2022/07/28 11:25:03;;;;;;;2.70;2.30;;;;;;;;;;5026277;28;20572;-54
2022/07/28 11:27:42;;;;;;;3.10;2.80;;;;;;;;;;5025059;28;20202;-54
2022/07/28 11:30:27;;;;;;;2.73;2.53;;;;;;;;;;5027061;28;20186;-55
2022/07/28 11:32:53;;;;;;;2.70;2.50;;;;;;;;;;5021024;28;21585;-55
2022/07/28 11:35:20;;;;;;;2.63;2.50;;;;;;;;;;5026929;28;20232;-54
2022/07/28 11:38:02;;;;;;;3.00;2.77;;;;;;;;;;5026741;28;20296;-53
2022/07/28 11:40:29;;;;;;;2.20;2.10;;;;;;;;;;5025519;28;20636;-54
2022/07/28 11:43:14;;;;;;;2.83;2.63;;;;;;;;;;5022524;28;20186;-54
2022/07/28 11:45:40;;;;;;;2.70;2.50;;;;;;;;;;5026323;28;20208;-54
2022/07/28 11:48:24;;;;;;;3.20;2.90;;;;;;;;;;5025198;28;20209;-54
2022/07/28 11:51:02;;;;;;;2.67;2.53;;;;;;;;;;5028817;28;20196;-54
2022/07/28 11:53:35;;;;;;;4.70;3.30;;;;;;;;;;5025643;28;20178;-54
2022/07/28 11:56:05;;;;;;;3.20;2.53;;;;;;;;;;5029099;28;20498;-54
2022/07/28 11:58:31;;;;;;;4.73;2.47;;;;;;;;;;5028302;28;20177;-53
2022/07/28 12:01:16;;;;;;;2.63;2.40;;;;;;;;;;5029620;28;20212;-54
2022/07/28 12:03:49;;;;;;;2.87;2.67;;;;;;;;;;5024519;28;20175;-54
2022/07/28 12:06:15;;;;;;;4.00;2.27;;;;;;;;;;5008375;28;20641;-54
2022/07/28 12:08:55;;;;;;;2.77;2.50;;;;;;;;;;5015434;28;20716;-55
2022/07/28 12:11:23;;;;;;;3.67;3.37;;;;;;;;;;5002449;28;20274;-54
2022/07/28 12:13:57;;;;;;;2.27;2.07;;;;;;;;;;4997143;28;20664;-54
2022/07/28 12:16:26;;;;;;;3.10;2.87;;;;;;;;;;5007900;28;20264;-54
2022/07/28 12:18:52;;;;;;;2.83;2.63;;;;;;;;;;5007156;28;20178;-54
2022/07/28 12:21:38;;;;;;;6.80;6.40;;;;;;;;;;5003120;28;20227;-54
2022/07/28 12:24:05;;;;;;;3.30;3.00;;;;;;;;;;5001236;28;20585;-54
2022/07/28 12:26:32;;;;;;;3.00;2.67;;;;;;;;;;5006669;28;20665;-53
2022/07/28 12:28:59;;;;;;;2.97;2.63;;;;;;;;;;5002270;28;21055;-54
2022/07/28 12:31:29;;;;;;;3.63;2.40;;;;;;;;;;5004677;28;20685;-54
2022/07/28 12:34:05;;;;;;;2.37;2.27;;;;;;;;;;5004725;28;20186;-54
2022/07/28 12:36:32;;;;;;;2.07;1.97;;;;;;;;;;5009507;28;20510;-54
2022/07/28 12:39:00;;;;;;;5.57;3.03;;;;;;;;;;4987426;28;20186;-54
2022/07/28 12:41:33;;;;;;;2.60;2.37;;;;;;;;;;4986963;28;20183;-53
2022/07/28 12:44:00;;;;;;;5.10;2.80;;;;;;;;;;4986719;28;20705;-54
2022/07/28 12:46:27;;;;;;;2.73;2.63;;;;;;;;;;5007691;28;20190;-54
2022/07/28 12:48:57;;;;;;;4.57;3.33;;;;;;;;;;5008582;28;20163;-54
2022/07/28 12:51:52;;;;;;;4.17;3.87;;;;;;;;;;5008601;28;20613;-54
2022/07/28 12:54:32;;;;;;;2.87;2.30;;;;;;;;;;4975509;28;20231;-54
2022/07/28 12:56:59;;;;;;;5.43;2.87;;;;;;;;;;4994076;28;20211;-53
2022/07/28 12:59:31;;;;;;;2.90;2.80;;;;;;;;;;5007796;28;20167;-54
2022/07/28 13:01:58;;;;;;;2.47;2.37;;;;;;;;;;5008825;28;20258;-53
2022/07/28 13:04:43;;;;;;;4.27;3.97;;;;;;;;;;4991032;28;20175;-54
2022/07/28 13:07:31;;;;;;;3.87;3.10;;;;;;;;;;5008435;28;20316;-54
2022/07/28 13:10:05;;;;;;;2.53;2.33;;;;;;;;;;5007611;28;20201;-54
2022/07/28 13:12:31;;;;;;;3.40;2.33;;;;;;;;;;5008297;28;20165;-54
2022/07/28 13:14:58;;;;;;;3.27;2.70;;;;;;;;;;5008640;28;20623;-54
2022/07/28 13:17:30;;;;;;;3.07;2.77;;;;;;;;;;5016408;28;20407;-54
2022/07/28 13:20:09;;;;;;;3.03;2.70;;;;;;;;;;5026399;28;20243;-53
2022/07/28 13:22:35;;;;;;;3.30;3.00;;;;;;;;;;5018375;28;20629;-53
2022/07/28 13:25:01;;;;;;;3.20;3.03;;;;;;;;;;4989588;28;20195;-53
2022/07/28 13:27:28;;;;;;;3.57;3.37;;;;;;;;;;4990239;28;20539;-53
2022/07/28 13:29:55;;;;;;;3.00;2.80;;;;;;;;;;5007798;28;20505;-53
2022/07/28 13:32:21;;;;;;;3.60;2.40;;;;;;;;;;4997660;28;20211;-54
2022/07/28 13:34:47;;;;;;;2.57;2.37;;;;;;;;;;5027586;28;20173;-54
2022/07/28 13:37:14;;;;;;;2.60;2.50;;;;;;;;;;5021350;28;20181;-54
2022/07/28 13:39:40;;;;;;;3.87;2.43;;;;;;;;;;5006867;28;20502;-54
2022/07/28 13:42:07;;;;;;;3.33;3.13;;;;;;;;;;5013600;28;20582;-54
2022/07/28 13:44:34;;;;;;;3.17;2.97;;;;;;;;;;5008675;28;20179;-54
2022/07/28 13:47:01;;;;;;;2.70;2.50;;;;;;;;;;5025880;28;20290;-54
2022/07/28 13:49:28;;;;;;;2.97;2.77;;;;;;;;;;5027437;28;20206;-54
2022/07/28 13:51:54;;;;;;;3.27;3.07;;;;;;;;;;5026770;28;20210;-54
2022/07/28 13:54:20;;;;;;;2.90;2.70;;;;;;;;;;5009438;28;20649;-54
2022/07/28 13:56:47;;;;;;;4.93;2.60;;;;;;;;;;5023754;28;20176;-53
2022/07/28 13:59:14;;;;;;;5.10;4.37;;;;;;;;;;5007731;28;20652;-53
2022/07/28 14:01:41;;;;;;;3.73;2.97;;;;;;;;;;5010004;28;20167;-54
2022/07/28 14:04:15;;;;;;;7.87;7.37;;;;;;;;;;5026270;28;20185;-53
2022/07/28 14:06:43;;;;;;;3.63;3.37;;;;;;;;;;5024948;28;20198;-53
2022/07/28 14:09:16;;;;;;;3.30;2.77;;;;;;;;;;4992936;28;20545;-53
2022/07/28 14:11:47;;;;;;;3.43;3.13;;;;;;;;;;4969496;28;20175;-54
2022/07/28 14:14:15;;;;;;;2.77;2.57;;;;;;;;;;4987635;28;20166;-54
2022/07/28 14:16:44;;;;;;;4.03;3.40;;;;;;;;;;4987381;28;20164;-54
2022/07/28 14:19:15;;;;;;;2.83;2.63;;;;;;;;;;4987193;28;20175;-54
2022/07/28 14:21:41;;;;;;;2.70;2.60;;;;;;;;;;4987688;28;20160;-55
2022/07/28 14:24:08;;;;;;;3.27;3.00;;;;;;;;;;4992725;28;20601;-54
2022/07/28 14:26:34;;;;;;;3.17;2.87;;;;;;;;;;5004984;28;20615;-54
2022/07/28 14:29:00;;;;;;;2.97;2.63;;;;;;;;;;4987485;28;20187;-53
2022/07/28 14:31:27;;;;;;;4.43;3.27;;;;;;;;;;4989021;28;20186;-55
2022/07/28 14:33:53;;;;;;;3.07;2.77;;;;;;;;;;4978139;28;20214;-53
2022/07/28 14:36:19;;;;;;;3.07;2.77;;;;;;;;;;4989141;28;20184;-54
2022/07/28 14:38:46;;;;;;;3.90;3.10;;;;;;;;;;4985362;28;20264;-54
2022/07/28 14:41:13;;;;;;;5.60;3.23;;;;;;;;;;5007591;28;20697;-54
2022/07/28 14:43:40;;;;;;;3.43;2.50;;;;;;;;;;5000525;28;20229;-55
2022/07/28 14:46:06;;;;;;;5.53;3.00;;;;;;;;;;5003686;28;20179;-55
2022/07/28 14:48:33;;;;;;;4.03;3.53;;;;;;;;;;5002557;28;20245;-56
2022/07/28 14:51:00;;;;;;;3.37;3.07;;;;;;;;;;5003927;28;20181;-55
2022/07/28 14:53:26;;;;;;;4.63;3.80;;;;;;;;;;4986404;28;20251;-55